Map

Track Data

SID SEASON NUMBER BASIN SUBBASIN NAME ISO_TIME NATURE LAT LON WMO_WIND WMO_PRES WMO_AGENCY TRACK_TYPE DIST2LAND LANDFALL IFLAG USA_AGENCY USA_ATCF_ID USA_LAT USA_LON USA_RECORD USA_STATUS USA_WIND USA_PRES USA_SSHS USA_R34_NE USA_R34_SE USA_R34_SW USA_R34_NW USA_R50_NE USA_R50_SE USA_R50_SW USA_R50_NW USA_R64_NE USA_R64_SE USA_R64_SW USA_R64_NW USA_POCI USA_ROCI USA_RMW USA_EYE TOKYO_LAT TOKYO_LON TOKYO_GRADE TOKYO_WIND TOKYO_PRES TOKYO_R50_DIR TOKYO_R50_LONG TOKYO_R50_SHORT TOKYO_R30_DIR TOKYO_R30_LONG TOKYO_R30_SHORT TOKYO_LAND CMA_LAT CMA_LON CMA_CAT CMA_WIND CMA_PRES HKO_LAT HKO_LON HKO_CAT HKO_WIND HKO_PRES NEWDELHI_LAT NEWDELHI_LON NEWDELHI_GRADE NEWDELHI_WIND NEWDELHI_PRES NEWDELHI_CI NEWDELHI_DP NEWDELHI_POCI REUNION_LAT REUNION_LON REUNION_TYPE REUNION_WIND REUNION_PRES REUNION_TNUM REUNION_CI REUNION_RMW REUNION_R34_NE REUNION_R34_SE REUNION_R34_SW REUNION_R34_NW REUNION_R50_NE REUNION_R50_SE REUNION_R50_SW REUNION_R50_NW REUNION_R64_NE REUNION_R64_SE REUNION_R64_SW REUNION_R64_NW BOM_LAT BOM_LON BOM_TYPE BOM_WIND BOM_PRES BOM_TNUM BOM_CI BOM_RMW BOM_R34_NE BOM_R34_SE BOM_R34_SW BOM_R34_NW BOM_R50_NE BOM_R50_SE BOM_R50_SW BOM_R50_NW BOM_R64_NE BOM_R64_SE BOM_R64_SW BOM_R64_NW BOM_ROCI BOM_POCI BOM_EYE BOM_POS_METHOD BOM_PRES_METHOD NADI_LAT NADI_LON NADI_CAT NADI_WIND NADI_PRES WELLINGTON_LAT WELLINGTON_LON WELLINGTON_WIND WELLINGTON_PRES DS824_LAT DS824_LON DS824_STAGE DS824_WIND DS824_PRES TD9636_LAT TD9636_LON TD9636_STAGE TD9636_WIND TD9636_PRES TD9635_LAT TD9635_LON TD9635_WIND TD9635_PRES TD9635_ROCI NEUMANN_LAT NEUMANN_LON NEUMANN_CLASS NEUMANN_WIND NEUMANN_PRES MLC_LAT MLC_LON MLC_CLASS MLC_WIND MLC_PRES USA_GUST BOM_GUST BOM_GUST_PER REUNION_GUST REUNION_GUST_PER USA_SEAHGT USA_SEARAD_NE USA_SEARAD_SE USA_SEARAD_SW USA_SEARAD_NW STORM_SPEED STORM_DIR
1899264N17089 1899 34 NI BB NOT_NAMED 1899-09-21 00:00:00 TS 17.2000 88.7000 main 396 385 _________O____ -1 17.2000 88.7000 TC 30 4 29
1899264N17089 1899 34 NI BB NOT_NAMED 1899-09-21 03:00:00 TS 17.3934 88.8116 main 385 367 _________PO___ -1 17.4900 88.8674 TC 30 17.2000 88.7000 1 5 24
1899264N17089 1899 34 NI BB NOT_NAMED 1899-09-21 06:00:00 TS 17.6863 88.9286 main 367 352 _________OP___ -1 17.8000 89.0000 TC 30 17.5157 88.8214 1 7 18
1899264N17089 1899 34 NI BB NOT_NAMED 1899-09-21 09:00:00 TS 18.0108 89.0134 main 352 336 _________PP___ -1 18.1425 89.0725 TC 30 17.8351 88.9345 1 7 12
1899264N17089 1899 34 NI BB NOT_NAMED 1899-09-21 12:00:00 TS 18.3310 89.0652 main 336 308 _________OP___ -1 18.5000 89.1000 TC 30 18.1620 89.0303 1 7 8
1899264N17089 1899 34 NI BB NOT_NAMED 1899-09-21 15:00:00 TS 18.6787 89.1038 main 308 290 _________PO___ -1 18.8575 89.1075 TC 30 18.5000 89.1000 1 7 4
1899264N17089 1899 34 NI BB NOT_NAMED 1899-09-21 18:00:00 TS 19.0247 89.1185 main 290 257 _________OP___ -1 19.2000 89.1000 TC 30 18.8493 89.1371 1 7 2
1899264N17089 1899 34 NI BB NOT_NAMED 1899-09-21 21:00:00 TS 19.3625 89.1263 main 246 223 _________PP___ -1 19.5300 89.1075 TC 30 19.1949 89.1452 1 6 0
1899264N17089 1899 34 NI BB NOT_NAMED 1899-09-22 00:00:00 TS 19.6590 89.1154 main 212 190 _________OP___ -1 19.8000 89.1000 TC 30 19.5181 89.1308 1 5 355
1899264N17089 1899 34 NI BB NOT_NAMED 1899-09-22 03:00:00 TS 19.8825 89.0788 main 190 178 _________PO___ -1 19.9650 89.0575 TC 30 19.8000 89.1000 1 4 349
1899264N17089 1899 34 NI BB NOT_NAMED 1899-09-22 06:00:00 TS 20.0550 89.0302 main 167 156 _________OP___ -1 20.1000 89.0000 TC 30 20.0100 89.0604 1 4 345
1899264N17089 1899 34 NI BB NOT_NAMED 1899-09-22 09:00:00 TS 20.2325 88.9750 main 156 134 _________PP___ -1 20.2850 88.9425 TC 30 20.1800 89.0076 1 4 345
1899264N17089 1899 34 NI BB NOT_NAMED 1899-09-22 12:00:00 TS 20.4175 88.9255 main 134 111 _________OP___ -1 20.5000 88.9000 TC 30 20.3350 88.9510 1 4 351
1899264N17089 1899 34 NI BB NOT_NAMED 1899-09-22 15:00:00 TS 20.6250 88.9000 main 111 89 _________PO___ -1 20.7500 88.8999 TC 30 20.5000 88.9000 1 4 354
1899264N17089 1899 34 NI BB NOT_NAMED 1899-09-22 18:00:00 TS 20.8411 88.8939 main 89 67 _________OP___ -1 21.0000 88.9000 TC 30 20.6821 88.8877 1 4 357
1899264N17089 1899 34 NI BB NOT_NAMED 1899-09-22 21:00:00 TS 21.0300 88.8759 main 67 44 _________PP___ -1 21.1775 88.8724 TC 30 20.8824 88.8793 1 4 353
1899264N17089 1899 34 NI BB NOT_NAMED 1899-09-23 00:00:00 TS 21.2582 88.8282 main 35 11 _________OP___ -1 21.4000 88.8000 TC 30 21.1165 88.8563 1 6 347
1899264N17089 1899 34 NI BB NOT_NAMED 1899-09-23 03:00:00 TS 21.5850 88.7325 main 11 0 _________PO___ -1 21.7700 88.6651 TC 30 21.4000 88.8000 1 8 343
1899264N17089 1899 34 NI BB NOT_NAMED 1899-09-23 06:00:00 TS 21.9810 88.5872 main 0 0 _________OP___ -1 22.2000 88.5000 TC 30 21.7620 88.6744 1 9 341
1899264N17089 1899 34 NI BB NOT_NAMED 1899-09-23 09:00:00 TS 22.3926 88.4292 main 0 0 _________PP___ -1 22.6150 88.3425 TC 30 22.1702 88.5159 1 9 341
1899264N17089 1899 34 NI BB NOT_NAMED 1899-09-23 12:00:00 TS 22.7966 88.2747 main 0 0 _________OP___ -1 23.0000 88.2000 TC 30 22.5933 88.3494 1 8 341
1899264N17089 1899 34 NI BB NOT_NAMED 1899-09-23 15:00:00 TS 23.1537 88.1424 main 0 0 _________PO___ -1 23.3075 88.0849 TC 30 23.0000 88.2000 1 7 343
1899264N17089 1899 34 NI BB NOT_NAMED 1899-09-23 18:00:00 TS 23.4665 88.0499 main 0 0 _________OP___ -1 23.6000 88.0000 TC 30 23.3664 88.0874 1 7 347
1899264N17089 1899 34 NI BB NOT_NAMED 1899-09-23 21:00:00 TS 23.7924 87.9812 main 0 0 _________PP___ -1 23.9350 87.9426 TC 30 23.6973 88.0070 1 6 351
1899264N17089 1899 34 NI BB NOT_NAMED 1899-09-24 00:00:00 TS 24.1030 87.9321 main 0 0 _________OP___ -1 24.3000 87.9000 TC 30 24.0046 87.9481 1 5 351
1899264N17089 1899 34 NI BB NOT_NAMED 1899-09-24 03:00:00 NR 24.3000 87.9000 main 0 __________O___ -1 TC 24.3000 87.9000 1 4 347

About IBTrACS Database

This database is a web-friendly format of International Best Track Archive for Climate Stewardship (IBTrACS), a global best track data archive curated by NOAA dating back to 1842.

Updated: 2021-10-21